Time;durP1;ratioP1;P1;durP2;ratioP2;P2;SDS_P1;SDS_P2;PMS_P1;PMS_P2;Temp;Humidity;BMP_temperature;BMP_pressure;BME280_temperature;BME280_humidity;BME280_pressure;Samples;Min_cycle;Max_cycle;Signal;HPM_P1;HPM_P2
2022/10/28 12:09:08;;;;;;;7.27;2.87;;;28.30;52.30;;;-142.21;42.21;112049.66;4689407;28;20700;-72
2022/10/28 12:11:57;;;;;;;4.60;2.60;;;28.70;52.50;;;-142.21;39.07;112049.66;4960565;28;20253;-71
2022/10/28 12:14:37;;;;;;;13.27;3.20;;;28.90;51.60;;;-142.21;36.72;112049.66;5012146;28;20197;-71
2022/10/28 12:17:13;;;;;;;5.27;2.90;;;29.00;51.10;;;-142.21;35.49;112049.66;5010167;28;20224;-72
2022/10/28 12:19:47;;;;;;;5.87;2.50;;;29.30;51.20;;;-142.21;34.92;112049.66;4995181;28;20288;-74
2022/10/28 12:22:23;;;;;;;6.70;2.97;;;29.40;51.20;;;-142.21;32.68;112049.66;4994544;28;20190;-73
2022/10/28 12:24:56;;;;;;;7.90;3.20;;;29.70;50.00;;;-142.21;32.49;112049.66;4994279;28;20230;-73
2022/10/28 12:27:30;;;;;;;6.60;3.27;;;30.00;49.40;;;-142.21;32.08;112049.66;4994513;28;20298;-72
2022/10/28 12:30:07;;;;;;;6.97;3.20;;;30.30;49.30;;;-142.21;31.06;112049.66;5014012;28;20312;-71
2022/10/28 12:32:37;;;;;;;9.93;3.27;;;30.50;48.30;;;-142.21;30.87;112049.66;5014622;28;20631;-71
2022/10/28 12:35:18;;;;;;;7.03;3.23;;;31.00;48.00;;;-142.21;30.04;112049.66;5013971;28;20227;-71
2022/10/28 12:37:54;;;;;;;6.47;2.90;;;31.30;46.70;;;-142.21;31.25;112049.66;5014443;28;20194;-71
2022/10/28 12:40:29;;;;;;;7.93;3.00;;;31.00;45.80;;;-142.21;32.78;112049.66;5017568;28;20232;-71
2022/10/28 12:43:05;;;;;;;5.33;2.83;;;30.90;46.60;;;-142.21;31.80;112049.66;5016018;28;20245;-72
2022/10/28 12:45:33;;;;;;;7.90;3.00;;;31.10;46.50;;;-142.21;30.66;112049.66;5014062;28;20206;-71
2022/10/28 12:48:15;;;;;;;6.77;3.30;;;31.50;45.80;;;-142.21;29.69;112049.66;4995210;28;20203;-71
2022/10/28 12:50:52;;;;;;;8.13;3.27;;;31.80;44.10;;;-142.21;29.23;112049.66;5014335;28;20192;-73
2022/10/28 12:53:34;;;;;;;8.23;3.30;;;32.20;43.40;;;-142.21;29.12;112049.66;5013719;28;20304;-73
2022/10/28 12:56:09;;;;;;;5.80;3.20;;;33.00;42.50;;;-142.21;29.07;112049.66;5013121;28;20198;-75
2022/10/28 12:58:45;;;;;;;6.77;3.60;;;34.10;41.20;;;-142.21;28.86;112049.66;5013903;28;20685;-73
2022/10/28 13:01:16;;;;;;;8.33;3.63;;;35.30;39.70;;;-142.21;28.42;112049.66;5013451;28;20195;-75
2022/10/28 13:03:44;;;;;;;5.80;3.10;;;36.70;37.70;;;-142.21;28.53;112049.66;5013895;28;20191;-73
2022/10/28 13:06:40;;;;;;;6.77;3.70;;;37.70;36.10;;;-142.21;28.63;112049.66;5013447;28;20206;-75
2022/10/28 13:09:38;;;;;;;7.47;3.33;;;38.50;33.40;;;-142.21;28.45;112049.66;5012319;28;20324;-72
2022/10/28 13:12:54;;;;;;;7.93;3.23;;;39.60;32.00;;;-142.21;27.95;112049.66;5012930;28;20220;-73
2022/10/28 13:16:02;;;;;;;10.83;3.63;;;40.80;31.00;;;-142.21;28.06;112049.66;5013174;28;20538;-74
2022/10/28 13:19:24;;;;;;;5.53;3.40;;;41.40;29.10;;;-142.21;29.97;112049.66;5013418;28;20673;-74
2022/10/28 13:22:40;;;;;;;9.10;3.40;;;40.40;30.20;;;-142.21;29.70;112049.66;4976682;28;20202;-76
2022/10/28 13:25:37;;;;;;;7.93;3.37;;;40.30;29.70;;;-142.21;29.95;112049.66;5004211;28;20216;-71
2022/10/28 13:28:11;;;;;;;9.90;3.60;;;40.70;30.00;;;-142.21;29.88;112049.66;4981564;28;20204;-71
2022/10/28 13:30:38;;;;;;;7.27;3.50;;;40.80;30.50;;;-142.21;30.53;112049.66;5013514;28;20233;-71
2022/10/28 13:33:09;;;;;;;10.30;3.17;;;40.70;31.30;;;-142.21;30.92;112049.66;5012506;28;20682;-70
2022/10/28 13:35:38;;;;;;;8.17;3.30;;;40.40;31.00;;;-142.21;31.79;112049.66;5012670;28;20202;-73
2022/10/28 13:38:12;;;;;;;8.83;3.50;;;39.90;31.50;;;-142.21;32.01;112049.66;5011247;28;20542;-72
2022/10/28 13:41:35;;;;;;;7.93;3.60;;;39.70;31.40;;;-142.21;32.96;112049.66;5009675;28;20192;-74
2022/10/28 13:44:27;;;;;;;9.27;3.73;;;38.70;31.30;;;-142.21;34.10;112049.66;4950925;28;20218;-70
2022/10/28 13:47:28;;;;;;;8.80;3.70;;;37.40;32.70;;;-142.21;35.11;112049.66;4954009;29;20209;-72
2022/10/28 13:50:39;;;;;;;10.37;3.70;;;36.30;33.70;;;-142.21;34.62;112049.66;4994282;28;20211;-73
2022/10/28 13:53:38;;;;;;;11.60;4.10;;;36.30;34.00;;;-142.21;35.34;112049.66;5000005;28;20233;-72
2022/10/28 13:56:22;;;;;;;8.77;3.57;;;36.40;34.30;;;-142.21;36.03;112049.66;5018266;28;20209;-71
2022/10/28 13:58:56;;;;;;;7.87;3.50;;;36.40;35.10;;;-142.21;36.22;112049.66;5015888;28;20196;-72
2022/10/28 14:02:00;;;;;;;6.53;3.43;;;36.60;35.20;;;-142.21;36.02;112049.66;5031174;28;20201;-72
2022/10/28 14:04:33;;;;;;;10.47;3.53;;;36.60;34.50;;;-142.21;36.41;112049.66;5032688;28;20194;-71
2022/10/28 14:07:20;;;;;;;7.90;3.33;;;36.40;35.00;;;-142.21;37.12;112049.66;5032003;28;20185;-72
2022/10/28 14:09:52;;;;;;;6.80;3.13;;;36.30;35.10;;;-142.21;37.32;112049.66;5032424;28;20648;-73
2022/10/28 14:12:29;;;;;;;7.10;3.53;;;36.50;35.60;;;-142.21;37.44;112049.66;5031790;28;20558;-72
2022/10/28 14:15:25;;;;;;;9.17;3.63;;;36.80;35.20;;;-142.21;37.56;112049.66;5032552;28;20591;-71
2022/10/28 14:18:01;;;;;;;9.97;3.80;;;37.00;35.30;;;-142.21;37.52;112049.66;5019535;28;20213;-73
2022/10/28 14:20:35;;;;;;;8.23;3.43;;;37.20;35.00;;;-142.21;38.34;112049.66;5012207;28;20590;-71
2022/10/28 14:24:10;;;;;;;9.03;3.63;;;37.20;35.20;;;-142.21;39.54;112049.66;5011925;28;20589;-72
2022/10/28 14:27:39;;;;;;;10.47;3.90;;;37.00;35.30;;;-142.21;40.86;112049.66;4971037;28;20679;-71
2022/10/28 14:30:23;;;;;;;9.93;3.53;;;36.20;36.10;;;-142.21;42.48;112049.66;5002430;28;20601;-72
2022/10/28 14:33:21;;;;;;;11.37;3.63;;;34.90;37.80;;;-142.21;44.69;112049.66;4992902;28;20216;-71
2022/10/28 14:36:17;;;;;;;7.57;3.50;;;33.90;39.50;;;-142.21;46.18;112049.66;4992175;28;20224;-71
2022/10/28 14:39:18;;;;;;;10.63;3.47;;;33.50;40.40;;;-142.21;46.80;112049.66;4992632;28;20309;-72
2022/10/28 14:42:04;;;;;;;6.60;3.60;;;33.40;40.70;;;-142.21;48.17;112049.66;4992947;28;20576;-72
2022/10/28 14:45:02;;;;;;;6.00;3.67;;;33.10;41.30;;;-142.21;48.84;112049.66;4992303;28;20195;-71
2022/10/28 14:48:24;;;;;;;6.77;3.57;;;33.00;41.80;;;-142.21;51.09;112049.66;4992159;28;20217;-71
2022/10/28 14:50:57;;;;;;;7.93;3.83;;;32.50;42.80;;;-142.21;53.07;112049.66;4993532;28;20231;-71
2022/10/28 14:53:30;;;;;;;10.83;3.73;;;32.00;43.80;;;-142.21;52.84;112049.66;4995788;28;20221;-72
2022/10/28 14:56:03;;;;;;;7.20;3.57;;;31.70;44.20;;;-142.21;51.45;112049.66;4996405;28;20200;-71
2022/10/28 14:58:37;;;;;;;8.57;3.23;;;31.40;44.30;;;-142.21;53.32;112049.66;4996563;28;20208;-71
2022/10/28 15:01:21;;;;;;;9.70;4.57;;;30.90;45.20;;;-142.21;54.49;112049.66;4995849;28;20202;-72
2022/10/28 15:03:54;;;;;;;8.87;5.03;;;30.50;46.30;;;-142.21;57.33;112049.66;4996486;28;20702;-71
2022/10/28 15:06:39;;;;;;;8.23;4.13;;;30.20;47.20;;;-142.21;58.18;112049.66;4995220;28;20282;-71
2022/10/28 15:09:21;;;;;;;8.77;4.57;;;29.90;48.00;;;-142.21;61.28;112049.66;4995364;28;20326;-71
2022/10/28 15:11:54;;;;;;;9.57;4.83;;;29.60;48.80;;;-142.21;61.40;112049.66;4996067;28;20191;-71
2022/10/28 15:14:41;;;;;;;8.20;3.57;;;29.30;49.30;;;-142.21;62.43;112049.66;4995703;28;20227;-71
2022/10/28 15:17:18;;;;;;;8.57;3.67;;;29.10;50.40;;;-142.21;64.32;112049.66;5002257;28;20652;-71
2022/10/28 15:19:47;;;;;;;7.27;4.33;;;28.80;51.00;;;-142.21;65.01;112049.66;5015272;28;20210;-72
2022/10/28 15:22:22;;;;;;;12.27;4.30;;;28.70;51.10;;;-142.21;64.19;112049.66;5015370;28;20536;-72
2022/10/28 15:25:01;;;;;;;9.20;4.07;;;28.50;51.30;;;-142.21;66.81;112049.66;5015771;28;20255;-72
2022/10/28 15:27:31;;;;;;;10.87;4.50;;;28.20;52.10;;;-142.21;68.35;112049.66;5007439;28;20246;-70
2022/10/28 15:29:59;;;;;;;12.20;4.30;;;28.00;52.50;;;-142.21;68.42;112049.66;5014739;28;20250;-71
2022/10/28 15:32:35;;;;;;;9.03;4.30;;;27.90;52.90;;;-142.21;71.69;112049.66;5015124;28;20225;-71
2022/10/28 15:35:37;;;;;;;6.70;4.30;;;27.60;54.20;;;-142.21;74.20;112049.66;5014575;28;20196;-72
2022/10/28 15:38:36;;;;;;;5.30;3.77;;;27.40;55.20;;;-142.21;76.35;112049.66;5015236;28;20694;-71
2022/10/28 15:41:48;;;;;;;11.33;4.40;;;27.30;56.10;;;-142.21;79.50;112049.66;4982044;28;20204;-71
2022/10/28 15:44:39;;;;;;;8.93;4.20;;;27.00;57.20;;;-142.21;81.04;112049.66;5015207;28;20188;-72
2022/10/28 15:47:28;;;;;;;9.40;4.60;;;26.70;58.10;;;-142.21;82.21;112049.66;5005064;28;20697;-72
2022/10/28 15:50:19;;;;;;;10.40;3.73;;;26.50;58.80;;;-142.21;83.87;112049.66;5014853;28;20235;-72
2022/10/28 15:52:48;;;;;;;7.93;3.40;;;26.30;59.10;;;-142.21;83.35;112049.66;5014955;28;20214;-71
2022/10/28 15:55:30;;;;;;;9.57;3.93;;;26.10;59.00;;;-142.21;84.56;112049.66;5014312;28;20207;-71
2022/10/28 15:58:01;;;;;;;9.07;3.70;;;25.90;60.00;;;-142.21;84.50;112049.66;5015081;28;20282;-71
2022/10/28 16:00:31;;;;;;;7.80;4.00;;;25.70;59.70;;;-142.21;85.59;112049.66;5013411;28;20203;-72
2022/10/28 16:03:01;;;;;;;9.00;3.97;;;25.60;60.50;;;-142.21;87.29;112049.66;5014472;28;20234;-71
2022/10/28 16:05:47;;;;;;;5.80;3.70;;;25.40;61.40;;;-142.21;88.43;112049.66;5014063;28;20266;-71
2022/10/28 16:08:25;;;;;;;7.47;4.10;;;25.30;62.90;;;-142.21;90.18;112049.66;5014132;28;20772;-72
2022/10/28 16:10:58;;;;;;;10.23;4.70;;;25.10;63.70;;;-142.21;92.22;112049.66;5014742;28;20667;-71
2022/10/28 16:13:35;;;;;;;11.63;4.27;;;25.00;64.10;;;-142.21;92.39;112049.66;4995763;28;20273;-71
2022/10/28 16:16:07;;;;;;;12.27;4.10;;;24.90;65.40;;;-142.21;93.55;112049.66;5014851;28;20191;-71
2022/10/28 16:18:43;;;;;;;7.60;3.87;;;24.80;65.80;;;-142.21;93.38;112049.66;4995827;28;20192;-71
2022/10/28 16:21:19;;;;;;;8.77;3.57;;;24.60;66.60;;;-142.21;94.61;112049.66;4994887;28;20210;-72
2022/10/28 16:23:50;;;;;;;8.73;3.20;;;24.40;66.90;;;-142.21;95.18;112049.66;4995268;28;20598;-72
2022/10/28 16:26:19;;;;;;;11.07;3.87;;;24.20;67.60;;;-142.21;95.11;112049.66;4994654;28;20307;-71
2022/10/28 16:28:46;;;;;;;7.27;3.90;;;24.10;67.80;;;-142.21;96.00;112049.66;4994943;28;20294;-72
2022/10/28 16:31:17;;;;;;;9.53;3.57;;;24.00;68.30;;;-142.21;96.27;112049.66;5012134;28;20206;-72
2022/10/28 16:33:45;;;;;;;7.83;3.70;;;23.80;69.00;;;-142.21;96.56;112049.66;5014448;28;20301;-71
2022/10/28 16:36:13;;;;;;;8.97;3.40;;;23.70;69.10;;;-142.21;97.32;112049.66;5013852;28;20642;-71
2022/10/28 16:38:40;;;;;;;4.77;3.00;;;23.60;69.50;;;-142.21;97.19;112049.66;5014440;28;20252;-71
2022/10/28 16:41:16;;;;;;;8.70;3.60;;;23.60;69.90;;;-142.21;96.85;112049.66;4995648;28;20218;-72
2022/10/28 16:43:45;;;;;;;6.70;4.07;;;23.60;70.50;;;-142.21;97.33;112049.66;5014516;28;20187;-72
2022/10/28 16:46:14;;;;;;;10.40;3.73;;;23.50;70.20;;;-142.21;97.77;112049.66;5013012;28;20238;-71
2022/10/28 16:48:42;;;;;;;7.57;3.67;;;23.50;70.40;;;-142.21;97.96;112049.66;5014335;28;20264;-71
2022/10/28 16:51:16;;;;;;;9.40;3.70;;;23.50;70.10;;;-142.21;98.02;112049.66;5014015;28;20242;-70
2022/10/28 16:53:45;;;;;;;8.93;4.20;;;23.50;70.70;;;-142.21;98.45;112049.66;5013887;28;20246;-72
2022/10/28 16:56:13;;;;;;;11.43;4.37;;;23.30;70.70;;;-142.21;99.29;112049.66;5013579;28;20209;-71
2022/10/28 16:58:42;;;;;;;6.27;3.60;;;23.30;71.10;;;-142.21;99.32;112049.66;5014241;28;20290;-71
2022/10/28 17:01:11;;;;;;;9.43;3.77;;;23.30;71.50;;;-142.21;100.00;112049.66;5013309;28;20677;-72
2022/10/28 17:03:39;;;;;;;8.40;4.00;;;23.10;71.80;;;-142.21;100.00;112049.66;5014088;28;20246;-71
2022/10/28 17:06:07;;;;;;;8.40;3.67;;;23.10;71.70;;;-142.21;100.00;112049.66;5014039;28;20239;-71
2022/10/28 17:08:34;;;;;;;5.83;3.37;;;23.10;72.10;;;-142.21;99.96;112049.66;5013129;28;20271;-71
2022/10/28 17:11:02;;;;;;;8.23;3.60;;;23.00;71.70;;;-142.21;100.00;112049.66;5013874;28;20216;-71
2022/10/28 17:13:29;;;;;;;7.17;3.80;;;23.00;72.00;;;-142.21;100.00;112049.66;5012773;28;20231;-71
2022/10/28 17:15:56;;;;;;;7.00;3.70;;;22.90;72.20;;;-142.21;100.00;112049.66;5000948;28;20581;-71
2022/10/28 17:18:25;;;;;;;6.73;4.07;;;22.80;72.60;;;-142.21;100.00;112049.66;4980946;28;20214;-71
2022/10/28 17:21:00;;;;;;;8.53;4.60;;;22.70;73.00;;;-142.21;100.00;112049.66;5014519;28;20356;-71
2022/10/28 17:23:27;;;;;;;7.27;4.20;;;22.70;73.60;;;-142.21;100.00;112049.66;5005727;28;20218;-71
2022/10/28 17:25:58;;;;;;;7.03;4.00;;;22.60;73.20;;;-142.21;100.00;112049.66;5011708;28;20207;-71
2022/10/28 17:28:25;;;;;;;8.77;3.87;;;22.50;73.50;;;-142.21;100.00;112049.66;4995426;28;20208;-71
2022/10/28 17:30:53;;;;;;;7.07;4.23;;;22.50;73.10;;;-142.21;100.00;112049.66;5008913;28;20223;-71
2022/10/28 17:33:21;;;;;;;7.87;4.00;;;22.40;73.80;;;-142.21;100.00;112049.66;5013142;28;20297;-71
2022/10/28 17:35:49;;;;;;;8.50;3.60;;;22.40;74.40;;;-142.21;100.00;112049.66;5027382;28;20184;-72
2022/10/28 17:38:18;;;;;;;7.27;3.73;;;22.30;74.40;;;-142.21;100.00;112049.66;5035625;28;20222;-72
2022/10/28 17:40:53;;;;;;;7.40;3.57;;;22.20;74.30;;;-142.21;100.00;112049.66;5013610;28;20213;-71
2022/10/28 17:43:20;;;;;;;8.57;3.63;;;22.20;74.90;;;-142.21;100.00;112049.66;5012706;28;20190;-71
2022/10/28 17:45:48;;;;;;;8.33;3.50;;;22.20;75.00;;;-142.21;100.00;112049.66;5016797;28;20191;-71
2022/10/28 17:48:16;;;;;;;5.73;3.30;;;22.00;75.60;;;-142.21;100.00;112049.66;5011063;28;20214;-71
2022/10/28 17:50:44;;;;;;;6.30;3.57;;;22.00;75.80;;;-142.21;100.00;112049.66;4993827;28;20267;-72
2022/10/28 17:53:12;;;;;;;7.17;3.90;;;22.00;76.10;;;-142.21;100.00;112049.66;4993749;28;20259;-72
2022/10/28 17:55:40;;;;;;;9.73;4.00;;;22.00;76.30;;;-142.21;100.00;112049.66;4999375;28;20303;-72
2022/10/28 17:58:08;;;;;;;6.70;3.30;;;21.90;76.30;;;-142.21;100.00;112049.66;5003573;28;20200;-72
2022/10/28 18:00:37;;;;;;;5.77;3.90;;;21.90;76.40;;;-142.21;100.00;112049.66;5001034;28;20212;-71
2022/10/28 18:03:05;;;;;;;10.80;3.80;;;21.80;76.80;;;-142.21;100.00;112049.66;4993406;28;20682;-71
2022/10/28 18:05:35;;;;;;;8.83;3.80;;;21.80;76.90;;;-142.21;100.00;112049.66;5030113;28;20256;-71
2022/10/28 18:08:02;;;;;;;13.70;3.80;;;21.60;77.00;;;-142.21;100.00;112049.66;5010286;28;20195;-72
2022/10/28 18:10:31;;;;;;;7.73;3.80;;;21.60;77.70;;;-142.21;100.00;112049.66;4992684;28;20640;-72
2022/10/28 18:12:58;;;;;;;11.17;4.93;;;21.60;76.70;;;-142.21;100.00;112049.66;5008659;28;20296;-72
2022/10/28 18:15:25;;;;;;;6.83;3.43;;;21.60;76.90;;;-142.21;100.00;112049.66;5032115;28;20245;-71
2022/10/28 18:17:52;;;;;;;7.77;3.47;;;21.50;77.30;;;-142.21;100.00;112049.66;5019378;28;20203;-71
2022/10/28 18:20:20;;;;;;;7.60;3.97;;;21.50;77.50;;;-142.21;100.00;112049.66;5012043;28;20211;-71
2022/10/28 18:22:47;;;;;;;7.70;3.90;;;21.50;77.40;;;-142.21;100.00;112049.66;5011711;28;20250;-71
2022/10/28 18:25:14;;;;;;;10.10;5.97;;;21.50;77.20;;;-142.21;100.00;112049.66;4999505;28;20238;-72
2022/10/28 18:27:43;;;;;;;7.83;4.90;;;21.50;77.30;;;-142.21;100.00;112049.66;4992445;28;20211;-71
2022/10/28 18:30:11;;;;;;;5.80;4.47;;;21.50;77.40;;;-142.21;100.00;112049.66;5002080;28;20297;-71
2022/10/28 18:32:38;;;;;;;7.87;3.77;;;21.50;77.00;;;-142.21;100.00;112049.66;5011847;28;20684;-72
2022/10/28 18:35:06;;;;;;;8.20;4.20;;;21.40;76.90;;;-142.21;100.00;112049.66;5012334;28;20911;-71
2022/10/28 18:37:34;;;;;;;10.70;4.53;;;21.50;77.20;;;-142.21;100.00;112049.66;5011829;28;20215;-71
2022/10/28 18:40:01;;;;;;;8.83;4.63;;;21.40;76.70;;;-142.21;100.00;112049.66;5012183;28;20246;-71
2022/10/28 18:42:29;;;;;;;9.17;4.40;;;21.40;76.70;;;-142.21;100.00;112049.66;5011614;28;20207;-71
2022/10/28 18:44:57;;;;;;;8.17;4.70;;;21.40;77.00;;;-142.21;100.00;112049.66;5012550;28;20625;-71
2022/10/28 18:47:25;;;;;;;7.03;4.17;;;21.30;77.00;;;-142.21;100.00;112049.66;4961242;28;20203;-71
2022/10/28 18:49:53;;;;;;;10.37;4.60;;;21.30;77.10;;;-142.21;100.00;112049.66;5012139;28;20293;-72
2022/10/28 18:52:20;;;;;;;7.97;4.40;;;21.30;77.00;;;-142.21;100.00;112049.66;5001481;28;20564;-70
2022/10/28 18:54:47;;;;;;;10.10;4.30;;;21.20;77.10;;;-142.21;100.00;112049.66;4999483;28;20231;-71
2022/10/28 18:57:15;;;;;;;8.00;4.77;;;21.20;77.00;;;-142.21;100.00;112049.66;4992342;28;20211;-71
2022/10/28 18:59:42;;;;;;;8.20;4.33;;;21.20;77.00;;;-142.21;100.00;112049.66;4993839;28;20204;-71
2022/10/28 19:02:12;;;;;;;11.43;4.60;;;21.20;77.00;;;-142.21;100.00;112049.66;5006320;28;20654;-71
2022/10/28 19:04:40;;;;;;;10.33;5.10;;;21.20;77.20;;;-142.21;100.00;112049.66;5001082;28;20208;-70
2022/10/28 19:07:07;;;;;;;8.50;4.50;;;21.00;78.20;;;-142.21;100.00;112049.66;4992274;28;20302;-71
2022/10/28 19:09:34;;;;;;;12.40;4.53;;;21.00;77.70;;;-142.21;100.00;112049.66;4992890;28;20235;-71
2022/10/28 19:12:02;;;;;;;8.70;4.73;;;21.00;77.90;;;-142.21;100.00;112049.66;5004226;28;20215;-71
2022/10/28 19:14:29;;;;;;;6.70;4.30;;;21.00;77.70;;;-142.21;100.00;112049.66;5003561;28;20226;-71
2022/10/28 19:16:56;;;;;;;8.77;4.60;;;21.00;77.50;;;-142.21;100.00;112049.66;4992550;28;20254;-70
2022/10/28 19:19:25;;;;;;;7.07;4.73;;;21.00;77.50;;;-142.21;100.00;112049.66;4974478;28;20636;-71
2022/10/28 19:21:55;;;;;;;9.63;4.77;;;20.90;77.50;;;-142.21;100.00;112049.66;5006742;28;20207;-71
2022/10/28 19:24:23;;;;;;;7.33;4.97;;;20.90;77.70;;;-142.21;100.00;112049.66;5009653;28;20215;-71
2022/10/28 19:26:50;;;;;;;8.47;5.00;;;20.90;77.50;;;-142.21;100.00;112049.66;5011310;28;20257;-72
2022/10/28 19:29:18;;;;;;;8.03;4.53;;;20.80;77.60;;;-142.21;100.00;112049.66;5009740;28;20295;-71
2022/10/28 19:31:45;;;;;;;9.70;4.70;;;20.80;77.50;;;-142.21;100.00;112049.66;5010413;28;20207;-71
2022/10/28 19:34:14;;;;;;;8.03;4.30;;;20.80;77.80;;;-142.21;100.00;112049.66;5007776;28;20216;-71
2022/10/28 19:36:42;;;;;;;7.57;4.53;;;20.70;78.80;;;-142.21;100.00;112049.66;4994390;28;20246;-71
2022/10/28 19:39:10;;;;;;;8.93;4.33;;;20.70;79.20;;;-142.21;100.00;112049.66;4996682;28;20262;-71
2022/10/28 19:41:37;;;;;;;6.80;4.10;;;20.60;79.50;;;-142.21;100.00;112049.66;5002845;28;20215;-71
2022/10/28 19:44:05;;;;;;;7.20;4.20;;;20.50;79.80;;;-142.21;100.00;112049.66;4996860;28;20207;-71
2022/10/28 19:46:34;;;;;;;8.33;4.50;;;20.40;80.00;;;-142.21;100.00;112049.66;5014881;28;20215;-71
2022/10/28 19:49:04;;;;;;;7.40;4.30;;;20.40;80.20;;;-142.21;100.00;112049.66;5014485;28;20211;-72
2022/10/28 19:51:34;;;;;;;6.93;4.30;;;20.30;80.30;;;-142.21;100.00;112049.66;5007796;28;20203;-71
2022/10/28 19:54:07;;;;;;;11.07;5.10;;;20.30;80.30;;;-142.21;100.00;112049.66;4995717;28;20227;-71
2022/10/28 19:56:36;;;;;;;10.27;4.67;;;20.30;80.30;;;-142.21;100.00;112049.66;5014504;28;20195;-71
2022/10/28 19:59:05;;;;;;;7.57;4.77;;;20.40;80.20;;;-142.21;100.00;112049.66;5014953;28;20214;-71
2022/10/28 20:01:37;;;;;;;8.77;5.03;;;20.30;80.30;;;-142.21;100.00;112049.66;4996787;28;20231;-70
2022/10/28 20:04:06;;;;;;;8.90;4.57;;;20.30;80.10;;;-142.21;100.00;112049.66;4995287;28;20613;-72
2022/10/28 20:06:37;;;;;;;8.57;4.03;;;20.30;79.70;;;-142.21;100.00;112049.66;5013902;28;20261;-71
2022/10/28 20:09:07;;;;;;;7.93;3.50;;;20.50;79.70;;;-142.21;100.00;112049.66;5014287;28;20325;-71
2022/10/28 20:11:38;;;;;;;7.70;4.93;;;20.30;79.40;;;-142.21;100.00;112049.66;5011417;28;20191;-71
2022/10/28 20:14:09;;;;;;;9.30;4.60;;;20.30;79.30;;;-142.21;100.00;112049.66;5014809;28;20710;-72
2022/10/28 20:16:37;;;;;;;5.20;3.70;;;20.20;79.20;;;-142.21;100.00;112049.66;4997634;28;20255;-71
2022/10/28 20:19:05;;;;;;;9.57;4.13;;;20.20;79.10;;;-142.21;100.00;112049.66;5011943;28;20199;-72
2022/10/28 20:21:36;;;;;;;6.40;4.60;;;20.20;79.00;;;-142.21;100.00;112049.66;5000174;28;20203;-71
2022/10/28 20:24:08;;;;;;;8.67;4.40;;;20.20;79.10;;;-142.21;100.00;112049.66;5011161;28;20658;-71
2022/10/28 20:26:38;;;;;;;9.33;4.67;;;20.10;79.00;;;-142.21;100.00;112049.66;4994485;28;20192;-71
2022/10/28 20:29:08;;;;;;;10.00;5.07;;;20.10;79.70;;;-142.21;100.00;112049.66;4996523;28;20661;-71
2022/10/28 20:31:37;;;;;;;7.40;4.70;;;20.10;78.80;;;-142.21;100.00;112049.66;5008146;28;20200;-71
2022/10/28 20:34:05;;;;;;;8.47;4.83;;;20.10;78.80;;;-142.21;100.00;112049.66;4996297;28;20679;-71
2022/10/28 20:36:35;;;;;;;9.20;6.23;;;20.00;78.60;;;-142.21;100.00;112049.66;5013734;28;20215;-71
2022/10/28 20:39:07;;;;;;;11.40;6.27;;;20.00;78.90;;;-142.21;100.00;112049.66;5012867;28;20618;-71
2022/10/28 20:41:36;;;;;;;9.40;5.23;;;20.00;79.40;;;-142.21;100.00;112049.66;4998680;28;20250;-72
2022/10/28 20:44:05;;;;;;;8.23;5.17;;;20.00;79.50;;;-142.21;100.00;112049.66;5013430;28;20741;-71
2022/10/28 20:46:33;;;;;;;7.67;4.87;;;19.90;79.20;;;-142.21;100.00;112049.66;5002541;28;20522;-71
2022/10/28 20:49:01;;;;;;;10.10;4.63;;;19.90;79.70;;;-142.21;100.00;112049.66;4994410;28;20212;-71
2022/10/28 20:51:31;;;;;;;8.60;4.43;;;19.80;80.00;;;-142.21;100.00;112049.66;5008770;28;20200;-71
2022/10/28 20:53:59;;;;;;;8.60;5.00;;;19.80;80.10;;;-142.21;100.00;112049.66;4993560;28;20751;-71
2022/10/28 20:56:30;;;;;;;8.33;4.03;;;19.80;80.70;;;-142.21;100.00;112049.66;5012425;28;20306;-71
2022/10/28 20:58:59;;;;;;;9.30;4.27;;;19.70;80.60;;;-142.21;100.00;112049.66;5013761;28;20199;-72
2022/10/28 21:01:30;;;;;;;6.67;4.40;;;19.60;81.60;;;-142.21;100.00;112049.66;5009670;28;20311;-72
2022/10/28 21:04:00;;;;;;;13.07;5.37;;;19.50;81.90;;;-142.21;100.00;112049.66;4994631;28;20246;-71
2022/10/28 21:06:30;;;;;;;8.13;4.43;;;19.50;82.00;;;-142.21;100.00;112049.66;5011020;28;20211;-72
2022/10/28 21:08:59;;;;;;;12.37;4.87;;;19.50;81.60;;;-142.21;100.00;112049.66;5010871;28;20301;-71
2022/10/28 21:11:29;;;;;;;7.07;4.40;;;19.50;81.60;;;-142.21;100.00;112049.66;5008210;28;20253;-71
2022/10/28 21:14:00;;;;;;;7.13;5.13;;;19.50;81.50;;;-142.21;100.00;112049.66;4996095;28;20240;-71
2022/10/28 21:16:29;;;;;;;8.87;4.60;;;19.50;81.20;;;-142.21;100.00;112049.66;5011865;28;20188;-71
2022/10/28 21:18:59;;;;;;;7.53;4.23;;;19.60;81.00;;;-142.21;100.00;112049.66;4961004;28;20210;-71
2022/10/28 21:21:28;;;;;;;8.77;4.60;;;19.50;80.70;;;-142.21;100.00;112049.66;4995520;28;20497;-72
2022/10/28 21:23:56;;;;;;;8.53;4.37;;;19.50;80.30;;;-142.21;100.00;112049.66;5012367;28;20258;-70
2022/10/28 21:26:25;;;;;;;7.03;4.23;;;19.50;80.20;;;-142.21;100.00;112049.66;5005887;28;20459;-71
2022/10/28 21:28:55;;;;;;;10.60;4.50;;;19.50;80.20;;;-142.21;100.00;112049.66;5017283;28;20211;-71
2022/10/28 21:31:23;;;;;;;7.03;5.00;;;19.40;80.20;;;-142.21;100.00;112049.66;5012306;28;20246;-71
2022/10/28 21:33:51;;;;;;;9.33;4.70;;;19.40;80.40;;;-142.21;100.00;112049.66;5006032;28;20224;-71
2022/10/28 21:36:21;;;;;;;6.97;4.37;;;19.40;80.30;;;-142.21;100.00;112049.66;5036649;28;20184;-72
2022/10/28 21:38:48;;;;;;;6.43;4.43;;;19.40;80.20;;;-142.21;100.00;112049.66;5030401;28;20447;-71
2022/10/28 21:41:19;;;;;;;9.10;3.97;;;19.30;79.80;;;-142.21;100.00;112049.66;4993872;28;20922;-71
2022/10/28 21:43:49;;;;;;;9.40;4.50;;;19.30;79.80;;;-142.21;100.00;112049.66;4993164;28;20192;-71
2022/10/28 21:46:20;;;;;;;9.20;4.50;;;19.30;79.80;;;-142.21;100.00;112049.66;4993893;28;20291;-71
2022/10/28 21:48:47;;;;;;;6.33;4.23;;;19.30;79.80;;;-142.21;100.00;112049.66;4992854;28;20192;-71
2022/10/28 21:51:17;;;;;;;8.17;4.40;;;19.30;79.80;;;-142.21;100.00;112049.66;4993039;28;20216;-71
2022/10/28 21:53:45;;;;;;;6.53;4.53;;;19.30;80.10;;;-142.21;100.00;112049.66;5008388;28;20218;-71
2022/10/28 21:56:15;;;;;;;7.00;4.40;;;19.30;80.10;;;-142.21;100.00;112049.66;5010566;28;20667;-70
2022/10/28 21:58:42;;;;;;;8.60;4.77;;;19.20;79.80;;;-142.21;100.00;112049.66;5004319;28;20614;-72
2022/10/28 22:01:12;;;;;;;8.27;4.20;;;19.20;79.80;;;-142.21;100.00;112049.66;5004381;28;20217;-72
2022/10/28 22:03:40;;;;;;;7.80;4.57;;;19.20;79.80;;;-142.21;100.00;112049.66;5011872;28;20452;-72
2022/10/28 22:06:12;;;;;;;8.87;4.63;;;19.10;79.70;;;-142.21;100.00;112049.66;5004444;28;20439;-72
2022/10/28 22:08:39;;;;;;;9.73;5.10;;;19.10;80.30;;;-142.21;100.00;112049.66;5001740;28;20362;-71
2022/10/28 22:11:09;;;;;;;7.43;4.30;;;19.10;80.20;;;-142.21;100.00;112049.66;4997059;28;20443;-71
2022/10/28 22:13:38;;;;;;;7.57;4.27;;;19.00;79.80;;;-142.21;100.00;112049.66;5001220;28;20199;-72
2022/10/28 22:16:08;;;;;;;6.63;4.00;;;19.00;80.50;;;-142.21;100.00;112049.66;5012666;28;20238;-71
2022/10/28 22:18:37;;;;;;;6.77;4.67;;;19.00;80.70;;;-142.21;100.00;112049.66;5009613;28;20688;-72
2022/10/28 22:21:10;;;;;;;4.77;3.90;;;18.90;80.60;;;-142.21;100.00;112049.66;5013163;28;20292;-72
2022/10/28 22:23:37;;;;;;;6.77;4.57;;;18.80;81.10;;;-142.21;100.00;112049.66;5012414;28;20227;-72
2022/10/28 22:26:07;;;;;;;10.90;4.50;;;18.80;81.20;;;-142.21;100.00;112049.66;5012670;28;20286;-72
2022/10/28 22:28:35;;;;;;;9.87;4.07;;;18.60;81.70;;;-142.21;100.00;112049.66;5011853;28;20773;-72
2022/10/28 22:31:05;;;;;;;8.27;4.57;;;18.60;81.60;;;-142.21;100.00;112049.66;5012897;28;20245;-73
2022/10/28 22:33:43;;;;;;;7.50;3.93;;;18.60;81.60;;;-142.21;100.00;112049.66;5012193;28;20200;-72